Time;durP1;ratioP1;P1;durP2;ratioP2;P2;SDS_P1;SDS_P2;PMS_P1;PMS_P2;Temp;Humidity;BMP_temperature;BMP_pressure;BME280_temperature;BME280_humidity;BME280_pressure;Samples;Min_cycle;Max_cycle;Signal;HPM_P1;HPM_P2
2023/03/07 00:01:20;;;;;;;28.95;14.43;;;3.00;99.90;;;1.32;100.00;98896.13;4990051;28;20494;-77
2023/03/07 00:03:45;;;;;;;28.05;14.50;;;3.00;99.90;;;1.37;100.00;98899.88;5006068;28;20390;-81
2023/03/07 00:06:11;;;;;;;29.02;13.13;;;3.10;99.90;;;1.36;100.00;98886.66;4987081;28;20053;-81
2023/03/07 00:08:37;;;;;;;32.40;16.20;;;3.10;99.90;;;1.32;100.00;98883.53;4990677;28;20151;-81
2023/03/07 00:11:06;;;;;;;29.48;14.60;;;3.10;99.90;;;1.33;100.00;98879.00;4990725;28;20046;-81
2023/03/07 00:13:33;;;;;;;27.20;13.07;;;3.00;99.90;;;1.38;100.00;98874.66;4990593;28;20035;-82
2023/03/07 00:16:13;;;;;;;29.38;14.82;;;3.00;99.90;;;1.38;100.00;98865.78;4990700;28;20034;-81
2023/03/07 00:18:40;;;;;;;24.88;13.48;;;3.00;99.90;;;1.39;100.00;98868.25;4988903;28;20038;-81
2023/03/07 00:21:10;;;;;;;29.63;14.88;;;3.10;99.90;;;1.36;100.00;98857.91;4991131;28;20562;-79
2023/03/07 00:23:39;;;;;;;26.90;12.43;;;3.10;99.90;;;1.45;100.00;98853.19;4986038;28;20108;-81
2023/03/07 00:26:10;;;;;;;28.10;12.65;;;3.10;99.90;;;1.45;100.00;98855.88;5006108;28;20042;-81
2023/03/07 00:28:36;;;;;;;25.73;11.93;;;3.10;99.90;;;1.43;100.00;98847.19;4989910;28;20089;-81
2023/03/07 00:31:06;;;;;;;26.48;12.60;;;3.10;99.90;;;1.41;100.00;98846.56;4989636;28;20042;-79
2023/03/07 00:33:33;;;;;;;25.35;14.05;;;3.10;99.90;;;1.34;100.00;98843.84;5004691;28;20493;-81
2023/03/07 00:36:05;;;;;;;30.17;14.05;;;3.10;99.90;;;1.27;100.00;98826.88;5005083;28;20034;-81
2023/03/07 00:38:32;;;;;;;25.23;12.80;;;3.00;99.90;;;1.28;100.00;98845.47;4990617;28;20065;-82
2023/03/07 00:41:02;;;;;;;26.83;13.13;;;2.90;99.90;;;1.21;100.00;98823.13;4990025;28;20081;-81
2023/03/07 00:43:28;;;;;;;26.85;12.85;;;2.90;99.90;;;1.20;100.00;98815.28;4990036;28;20073;-82
2023/03/07 00:45:54;;;;;;;25.55;12.85;;;2.90;99.90;;;1.17;100.00;98811.13;4990497;28;20068;-80
2023/03/07 00:48:21;;;;;;;26.80;13.20;;;2.90;99.90;;;1.13;100.00;98810.69;4989974;28;20034;-79
2023/03/07 00:50:48;;;;;;;26.90;13.13;;;2.80;99.90;;;1.13;100.00;98804.50;4969959;28;20459;-80
2023/03/07 00:53:15;;;;;;;26.02;12.90;;;2.80;99.90;;;1.12;100.00;98803.66;4969372;28;20125;-80
2023/03/07 00:55:40;;;;;;;29.35;13.40;;;2.80;99.90;;;1.09;100.00;98798.69;4990423;28;20125;-81
2023/03/07 00:58:06;;;;;;;27.80;13.18;;;2.80;99.90;;;1.12;100.00;98802.84;4990696;28;20041;-80
2023/03/07 01:00:32;;;;;;;26.23;12.80;;;2.80;99.90;;;1.12;100.00;98795.59;4991077;28;20042;-80
2023/03/07 01:03:00;;;;;;;26.85;13.30;;;2.80;99.90;;;1.14;100.00;98792.72;4972633;28;20382;-79
2023/03/07 01:05:27;;;;;;;28.52;14.63;;;2.80;99.90;;;1.20;100.00;98788.41;4990154;28;20413;-80
2023/03/07 01:07:53;;;;;;;28.77;13.07;;;2.80;99.90;;;1.19;100.00;98778.69;4989047;28;20046;-80
2023/03/07 01:10:19;;;;;;;27.17;12.50;;;2.90;99.90;;;1.18;100.00;98775.19;5003488;28;20053;-80
2023/03/07 01:12:44;;;;;;;29.75;14.45;;;2.90;99.90;;;1.20;100.00;98775.00;4990201;28;20534;-80
2023/03/07 01:15:11;;;;;;;27.55;13.40;;;2.90;99.90;;;1.19;100.00;98768.78;4972218;28;20443;-79
2023/03/07 01:17:37;;;;;;;26.73;13.82;;;2.90;99.90;;;1.13;100.00;98754.28;4987053;28;20037;-81
2023/03/07 01:20:05;;;;;;;27.50;14.20;;;2.90;99.90;;;1.20;100.00;98757.00;4968899;28;20513;-80
2023/03/07 01:22:32;;;;;;;22.92;11.48;;;2.80;99.90;;;1.19;100.00;98746.44;5004446;28;20042;-78
2023/03/07 01:24:58;;;;;;;25.60;12.23;;;2.80;99.90;;;1.17;100.00;98735.91;4989857;28;20042;-79
2023/03/07 01:27:24;;;;;;;30.15;13.98;;;2.80;99.90;;;1.15;100.00;98733.41;4989276;28;20501;-80
2023/03/07 01:29:50;;;;;;;25.35;13.32;;;2.90;99.90;;;1.14;100.00;98730.94;4997357;28;20034;-80
2023/03/07 01:32:16;;;;;;;27.35;13.50;;;2.80;99.90;;;1.20;100.00;98738.19;4988332;28;20073;-78
2023/03/07 01:34:42;;;;;;;29.52;14.07;;;2.80;99.90;;;1.18;100.00;98717.91;4991793;28;20037;-80
2023/03/07 01:37:09;;;;;;;29.35;14.18;;;2.80;99.90;;;1.11;100.00;98710.69;4993177;28;20037;-80
2023/03/07 01:39:35;;;;;;;27.33;13.55;;;2.80;99.90;;;1.17;100.00;98714.41;4991560;28;20053;-78
2023/03/07 01:42:05;;;;;;;27.77;12.43;;;2.80;99.90;;;1.17;100.00;98711.72;5003758;28;20069;-79
2023/03/07 01:44:56;;;;;;;24.90;12.70;;;2.80;99.90;;;1.16;100.00;98696.66;4991258;28;20141;-80
2023/03/07 01:47:22;;;;;;;25.10;11.27;;;2.80;99.90;;;1.20;100.00;98710.50;4992225;28;20035;-79
2023/03/07 01:49:52;;;;;;;24.00;11.18;;;2.80;99.90;;;1.16;100.00;98696.66;4991795;28;20054;-80
2023/03/07 01:52:38;;;;;;;23.15;10.93;;;2.80;99.90;;;1.15;100.00;98695.00;4991530;28;20034;-80
2023/03/07 01:55:17;;;;;;;;;;;2.80;99.90;;;1.11;100.00;98688.38;5006261;28;20029;-78
2023/03/07 01:57:49;;;;;;;21.75;11.60;;;2.80;99.90;;;1.10;100.00;98676.78;4994357;28;19972;-79
2023/03/07 02:00:28;;;;;;;24.88;12.93;;;2.80;99.90;;;1.08;100.00;98673.50;4990887;28;20035;-81
2023/03/07 02:03:18;;;;;;;23.35;12.45;;;2.80;99.90;;;1.07;100.00;98684.44;4988817;28;20026;-80
2023/03/07 02:05:57;;;;;;;21.75;10.68;;;2.80;99.90;;;1.05;100.00;98670.38;4986665;28;20038;-78
2023/03/07 02:08:27;;;;;;;23.92;11.32;;;2.70;99.90;;;0.98;100.00;98671.19;4970802;28;20026;-80
2023/03/07 02:10:53;;;;;;;23.42;12.13;;;2.70;99.90;;;0.96;100.00;98665.19;4992093;28;20084;-79
2023/03/07 02:13:20;;;;;;;20.83;10.98;;;2.70;99.90;;;0.90;100.00;98655.28;4992507;28;20035;-80
2023/03/07 02:15:46;;;;;;;20.33;10.45;;;2.60;99.90;;;0.86;100.00;98654.84;4992782;28;20053;-79
2023/03/07 02:18:19;;;;;;;24.90;12.40;;;2.60;99.90;;;0.83;100.00;98652.56;4992726;28;20161;-79
2023/03/07 02:20:54;;;;;;;25.30;11.93;;;2.50;99.90;;;0.78;100.00;98651.50;4991113;28;20066;-80
2023/03/07 02:23:53;;;;;;;24.00;12.10;;;2.50;99.90;;;0.74;100.00;98644.88;4991763;28;20474;-81
2023/03/07 02:26:27;;;;;;;25.65;12.43;;;2.40;99.90;;;0.67;100.00;98632.28;5003243;28;20058;-80
2023/03/07 02:28:54;;;;;;;21.88;10.77;;;2.40;99.90;;;0.68;100.00;98650.03;4990464;28;20034;-78
2023/03/07 02:31:21;;;;;;;26.05;11.55;;;2.40;99.90;;;0.63;100.00;98631.03;4991498;28;20490;-79
2023/03/07 02:33:47;;;;;;;27.25;12.18;;;2.40;99.90;;;0.65;100.00;98637.03;4992344;28;20057;-80
2023/03/07 02:36:19;;;;;;;24.65;12.10;;;2.40;99.90;;;0.62;100.00;98658.91;4991880;28;20037;-80
2023/03/07 02:38:55;;;;;;;24.15;11.70;;;2.30;99.90;;;0.55;100.00;98628.53;4987340;28;20035;-81
2023/03/07 02:41:31;;;;;;;27.20;13.35;;;2.30;99.90;;;0.49;100.00;98624.78;4968109;28;20089;-80
2023/03/07 02:44:00;;;;;;;23.05;11.18;;;2.30;99.90;;;0.53;100.00;98611.78;5007929;28;20393;-81
2023/03/07 02:46:25;;;;;;;24.10;11.90;;;2.30;99.90;;;0.49;100.00;98616.75;5006446;28;20030;-79
2023/03/07 02:48:51;;;;;;;24.08;11.18;;;2.30;99.90;;;0.54;100.00;98630.38;4992855;28;20064;-81
2023/03/07 02:51:17;;;;;;;23.83;11.23;;;2.20;99.90;;;0.50;100.00;98612.19;4991306;28;20030;-79
2023/03/07 02:53:45;;;;;;;22.00;10.45;;;2.30;99.90;;;0.49;100.00;98623.94;4991508;28;20026;-80
2023/03/07 02:56:11;;;;;;;20.80;10.07;;;2.20;99.90;;;0.50;100.00;98602.28;4991147;28;20383;-81
2023/03/07 02:58:37;;;;;;;22.95;11.02;;;2.20;99.90;;;0.50;100.00;98617.56;4991409;28;20062;-80
2023/03/07 03:01:03;;;;;;;21.83;10.32;;;2.20;99.90;;;0.46;100.00;98601.03;4992160;28;20034;-79
2023/03/07 03:03:30;;;;;;;21.95;9.82;;;2.20;99.90;;;0.46;100.00;98611.78;4988057;28;20038;-80
2023/03/07 03:05:56;;;;;;;21.77;10.52;;;2.30;99.90;;;0.49;100.00;98589.91;4989124;28;20038;-80
2023/03/07 03:08:22;;;;;;;18.58;9.45;;;2.20;99.90;;;0.56;100.00;98589.94;4985848;28;20478;-80
2023/03/07 03:10:54;;;;;;;21.08;9.45;;;2.30;99.90;;;0.51;100.00;98611.16;5003941;28;20035;-79
2023/03/07 03:13:22;;;;;;;20.08;10.45;;;2.30;99.90;;;0.56;100.00;98606.03;5004817;28;20112;-80
2023/03/07 03:15:48;;;;;;;21.20;9.68;;;2.20;99.90;;;0.56;100.00;98598.00;4992458;28;20042;-79
2023/03/07 03:18:14;;;;;;;18.67;10.07;;;2.30;99.90;;;0.55;100.00;98591.78;4991782;28;20043;-80
2023/03/07 03:20:41;;;;;;;22.48;10.10;;;2.30;99.90;;;0.63;100.00;98600.66;5006852;28;20053;-79
2023/03/07 03:23:07;;;;;;;24.05;10.60;;;2.30;99.90;;;0.63;100.00;98581.88;4989907;28;20477;-79
2023/03/07 03:25:34;;;;;;;23.08;10.43;;;2.40;99.90;;;0.64;100.00;98575.47;4989168;28;20084;-80
2023/03/07 03:28:01;;;;;;;19.75;9.23;;;2.40;99.90;;;0.73;100.00;98585.00;5007231;28;20536;-80
2023/03/07 03:30:31;;;;;;;19.33;9.68;;;2.40;99.90;;;0.79;100.00;98594.09;4990627;28;20043;-79
2023/03/07 03:32:57;;;;;;;18.40;9.30;;;2.50;99.90;;;0.82;100.00;98582.97;5006941;28;20502;-81
2023/03/07 03:35:23;;;;;;;20.42;9.95;;;2.50;99.90;;;0.84;100.00;98573.66;4990364;28;20383;-79
2023/03/07 03:37:49;;;;;;;19.63;10.00;;;2.60;99.90;;;0.90;100.00;98587.31;4994014;28;20037;-80
2023/03/07 03:40:16;;;;;;;19.05;9.60;;;2.60;99.90;;;0.95;100.00;98587.53;5006821;28;20023;-78
2023/03/07 03:42:44;;;;;;;18.50;9.60;;;2.60;99.90;;;0.94;100.00;98575.97;4990724;28;20490;-79
2023/03/07 03:45:13;;;;;;;18.85;9.90;;;2.70;99.90;;;1.02;100.00;98574.09;4991419;28;20042;-82
2023/03/07 03:47:39;;;;;;;21.25;10.45;;;2.70;99.90;;;1.04;100.00;98585.47;4992112;28;20173;-80
2023/03/07 03:50:06;;;;;;;19.15;10.43;;;2.70;99.90;;;1.08;100.00;98584.84;4991267;28;20077;-81
2023/03/07 03:52:35;;;;;;;17.73;9.15;;;2.80;99.90;;;1.15;100.00;98588.34;4990635;28;20034;-80
2023/03/07 03:55:00;;;;;;;19.50;9.38;;;2.80;99.90;;;1.17;100.00;98573.91;5006654;28;20079;-80
2023/03/07 03:57:26;;;;;;;18.50;9.63;;;2.80;99.90;;;1.10;100.00;98568.53;4988631;28;20053;-80
2023/03/07 03:59:52;;;;;;;17.58;9.77;;;2.80;99.90;;;1.15;100.00;98577.63;4988379;28;20045;-79
2023/03/07 04:02:18;;;;;;;20.17;9.10;;;2.90;99.90;;;1.15;100.00;98576.81;4989950;28;20490;-81
2023/03/07 04:04:44;;;;;;;18.13;10.48;;;2.90;99.90;;;1.14;100.00;98561.72;4990486;28;20031;-81
2023/03/07 04:07:10;;;;;;;17.90;9.52;;;2.90;99.90;;;1.17;100.00;98574.75;4990583;28;20885;-80
2023/03/07 04:09:35;;;;;;;19.13;9.75;;;2.90;99.90;;;1.16;100.00;98570.41;4989734;28;20053;-80
2023/03/07 04:12:02;;;;;;;17.52;9.48;;;2.90;99.90;;;1.18;100.00;98571.00;4988346;28;20601;-81
2023/03/07 04:14:28;;;;;;;18.20;9.43;;;2.90;99.90;;;1.23;100.00;98579.28;4989784;28;20088;-80
2023/03/07 04:16:54;;;;;;;18.63;10.75;;;2.90;99.90;;;1.25;100.00;98565.66;4989460;28;20117;-80
2023/03/07 04:19:20;;;;;;;18.45;10.05;;;2.90;99.90;;;1.25;100.00;98571.84;4989584;28;20029;-80
2023/03/07 04:21:46;;;;;;;18.67;9.45;;;3.00;99.90;;;1.33;100.00;98567.31;4990724;28;20405;-78
2023/03/07 04:24:14;;;;;;;21.05;10.70;;;3.00;99.90;;;1.31;100.00;98564.81;4965344;28;20070;-79
2023/03/07 04:26:40;;;;;;;15.20;9.32;;;3.00;99.90;;;1.33;100.00;98561.94;5005622;28;20045;-80
2023/03/07 04:29:06;;;;;;;18.45;10.05;;;3.00;99.90;;;1.33;100.00;98556.56;4989489;28;20040;-79
2023/03/07 04:31:39;;;;;;;17.33;10.32;;;3.00;99.90;;;1.37;100.00;98558.59;4964058;28;20073;-80
2023/03/07 04:34:06;;;;;;;17.08;9.52;;;3.10;99.90;;;1.39;100.00;98563.78;5005232;28;20058;-80
2023/03/07 04:36:32;;;;;;;17.77;10.55;;;3.00;99.90;;;1.35;100.00;98544.56;4990396;28;20030;-80
2023/03/07 04:38:58;;;;;;;19.65;10.93;;;3.10;99.90;;;1.37;100.00;98542.47;5005527;28;20041;-80
2023/03/07 04:41:27;;;;;;;19.92;11.55;;;3.00;99.90;;;1.38;100.00;98548.69;4988580;28;20030;-80
2023/03/07 04:43:57;;;;;;;18.13;9.73;;;3.00;99.90;;;1.29;100.00;98535.44;4979488;28;20065;-79
2023/03/07 04:46:24;;;;;;;16.52;9.93;;;3.00;99.90;;;1.32;100.00;98528.00;4989379;28;20042;-80
2023/03/07 04:48:50;;;;;;;18.25;10.23;;;3.00;99.90;;;1.34;100.00;98528.66;4988838;28;20054;-81
2023/03/07 04:51:16;;;;;;;21.08;10.88;;;3.00;99.90;;;1.34;100.00;98534.84;4988938;28;20069;-78
2023/03/07 04:53:43;;;;;;;19.02;10.35;;;3.00;99.90;;;1.34;100.00;98520.59;4989608;28;20046;-79
2023/03/07 04:56:09;;;;;;;27.15;12.07;;;3.00;99.90;;;1.34;100.00;98520.59;4989261;28;20026;-79
2023/03/07 04:58:36;;;;;;;23.07;11.10;;;3.00;99.90;;;1.32;100.00;98530.69;5004628;28;20223;-79
2023/03/07 05:01:03;;;;;;;20.88;11.65;;;3.00;99.90;;;1.29;100.00;98529.28;5005456;28;20429;-79
2023/03/07 05:03:30;;;;;;;22.63;12.10;;;3.00;99.90;;;1.29;100.00;98527.41;5002800;28;20030;-79
2023/03/07 05:06:06;;;;;;;25.15;13.07;;;3.00;99.90;;;1.31;100.00;98529.88;5004332;28;20129;-79
2023/03/07 05:08:33;;;;;;;24.60;11.73;;;3.00;99.90;;;1.38;100.00;98522.63;4990618;28;20379;-80
2023/03/07 05:11:00;;;;;;;21.17;11.48;;;3.00;99.90;;;1.40;100.00;98525.94;4995491;28;20033;-79
2023/03/07 05:13:26;;;;;;;19.83;10.25;;;3.10;99.90;;;1.37;100.00;98530.91;4995461;28;20111;-80
2023/03/07 05:15:55;;;;;;;19.65;10.48;;;3.10;99.90;;;1.29;100.00;98527.41;4996070;28;20030;-80
2023/03/07 05:18:23;;;;;;;21.55;10.82;;;3.00;99.90;;;1.32;100.00;98533.38;5012016;28;20026;-81
2023/03/07 05:20:50;;;;;;;20.02;10.43;;;3.00;99.90;;;1.25;100.00;98547.66;5010764;28;20045;-81
2023/03/07 05:23:17;;;;;;;19.67;9.98;;;3.00;99.90;;;1.23;100.00;98544.34;4996157;28;20096;-81
2023/03/07 05:25:46;;;;;;;20.60;9.90;;;2.90;99.90;;;1.20;100.00;98557.41;4995628;28;20034;-80
2023/03/07 05:28:13;;;;;;;21.65;10.15;;;2.90;99.90;;;1.07;100.00;98556.34;4991791;28;20031;-81
2023/03/07 05:30:38;;;;;;;18.02;9.77;;;2.80;99.90;;;0.99;100.00;98589.59;4997627;28;20072;-80
2023/03/07 05:33:04;;;;;;;13.32;7.18;;;2.70;99.90;;;0.78;100.00;98577.19;5011468;28;20072;-81
2023/03/07 05:35:31;;;;;;;8.68;5.30;;;2.60;99.90;;;0.54;100.00;98563.28;4995006;28;20057;-81
2023/03/07 05:37:58;;;;;;;9.40;4.18;;;2.30;99.90;;;0.38;100.00;98583.25;4992162;28;20051;-79
2023/03/07 05:40:24;;;;;;;6.90;2.75;;;2.20;99.90;;;0.29;100.00;98576.44;5010302;28;20049;-80
2023/03/07 05:42:49;;;;;;;7.72;2.40;;;2.10;99.90;;;0.16;100.00;98574.53;4997418;28;20105;-80
2023/03/07 05:45:17;;;;;;;4.45;1.75;;;2.00;99.90;;;0.09;100.00;98593.25;5011742;28;20026;-80
2023/03/07 05:47:43;;;;;;;5.47;2.38;;;1.90;99.90;;;0.02;100.00;98589.72;4993562;28;20544;-79
2023/03/07 05:50:12;;;;;;;7.65;2.30;;;1.80;99.90;;;-0.04;100.00;98582.44;4995070;28;20421;-78
2023/03/07 05:52:39;;;;;;;5.18;1.80;;;1.70;99.90;;;-0.12;100.00;98580.78;4993845;28;20059;-79
2023/03/07 05:55:07;;;;;;;7.80;2.25;;;1.70;99.90;;;-0.11;100.00;98562.84;4995106;28;20138;-77
2023/03/07 05:57:33;;;;;;;;;;;1.60;99.90;;;-0.12;100.00;98570.06;4991511;28;20035;-77
2023/03/07 05:59:58;;;;;;;5.55;1.65;;;1.60;99.90;;;-0.07;100.00;98570.28;5000418;28;19983;-78
2023/03/07 06:02:24;;;;;;;7.50;2.00;;;1.70;99.90;;;-0.02;100.00;98578.56;4996037;28;20050;-79
2023/03/07 06:04:50;;;;;;;7.65;2.25;;;1.70;99.90;;;0.00;100.00;98564.97;4996302;28;20038;-80
2023/03/07 06:07:16;;;;;;;7.30;2.05;;;1.70;99.90;;;0.01;100.00;98563.09;4994854;28;20536;-81
2023/03/07 06:09:42;;;;;;;5.30;1.67;;;1.80;99.90;;;0.04;100.00;98563.53;4979595;28;20065;-80
2023/03/07 06:12:09;;;;;;;9.60;1.92;;;1.80;99.90;;;0.08;100.00;98551.38;4975171;28;20026;-82
2023/03/07 06:14:36;;;;;;;5.97;1.80;;;1.80;99.90;;;0.08;100.00;98545.19;4995418;28;20030;-81
2023/03/07 06:17:03;;;;;;;5.63;1.80;;;1.80;99.90;;;0.14;100.00;98542.53;5010746;28;20430;-79
2023/03/07 06:19:30;;;;;;;4.90;1.33;;;1.90;99.90;;;0.15;100.00;98551.41;4994540;28;20034;-81
2023/03/07 06:21:56;;;;;;;6.10;1.40;;;1.80;99.90;;;0.15;100.00;98546.06;5006852;28;20105;-80
2023/03/07 06:24:22;;;;;;;4.10;1.38;;;1.90;99.90;;;0.22;100.00;98554.09;4993415;28;20042;-79
2023/03/07 06:26:48;;;;;;;5.78;1.10;;;1.90;99.90;;;0.22;100.00;98544.22;4991917;28;20520;-80
2023/03/07 06:29:16;;;;;;;5.47;1.20;;;2.00;99.90;;;0.33;100.00;98550.84;4992798;28;20028;-78
2023/03/07 06:31:42;;;;;;;5.13;1.30;;;2.00;99.90;;;0.32;100.00;98546.53;4983779;28;20042;-79
2023/03/07 06:34:09;;;;;;;5.68;1.23;;;2.00;99.90;;;0.34;100.00;98544.47;5001384;28;20026;-79
2023/03/07 06:36:35;;;;;;;7.38;1.38;;;2.10;99.90;;;0.47;100.00;98548.19;4997879;28;20073;-78
2023/03/07 06:39:01;;;;;;;10.32;1.70;;;2.10;99.90;;;0.43;100.00;98551.28;4990611;28;20031;-77
2023/03/07 06:41:27;;;;;;;9.48;2.35;;;2.10;99.90;;;0.53;100.00;98555.44;5008131;28;20046;-77
2023/03/07 06:43:55;;;;;;;5.95;2.10;;;2.20;99.90;;;0.47;100.00;98551.72;4995235;28;20108;-79
2023/03/07 06:46:26;;;;;;;7.18;2.55;;;2.20;99.90;;;0.53;100.00;98548.22;4990601;28;20042;-77
2023/03/07 06:48:54;;;;;;;7.10;2.22;;;2.20;99.90;;;0.56;100.00;98552.38;4966934;28;20042;-78
2023/03/07 06:51:19;;;;;;;5.78;2.22;;;2.20;99.90;;;0.61;100.00;98557.94;4996404;28;20034;-78
2023/03/07 06:53:46;;;;;;;5.13;1.83;;;2.30;99.90;;;0.62;100.00;98556.06;4992523;28;20409;-79
2023/03/07 06:56:12;;;;;;;4.85;1.73;;;2.30;99.90;;;0.71;100.00;98565.59;4990596;28;20042;-77
2023/03/07 06:58:39;;;;;;;7.60;1.58;;;2.40;99.90;;;0.76;100.00;98567.66;4990835;28;20497;-80
2023/03/07 07:01:06;;;;;;;8.50;1.20;;;2.40;99.90;;;0.70;100.00;98561.28;4991470;28;20076;-78
2023/03/07 07:03:34;;;;;;;5.43;1.27;;;2.40;99.90;;;0.75;100.00;98566.00;4991414;28;20105;-80
2023/03/07 07:06:01;;;;;;;9.15;1.88;;;2.40;99.90;;;0.77;100.00;98570.16;4991303;28;20122;-80
2023/03/07 07:08:27;;;;;;;3.45;0.88;;;2.50;99.90;;;0.77;100.00;98564.78;4991945;28;20093;-80
2023/03/07 07:10:58;;;;;;;2.30;0.90;;;2.50;99.90;;;0.82;100.00;98573.03;4991575;28;20046;-79
2023/03/07 07:13:24;;;;;;;3.15;0.90;;;2.50;99.90;;;0.82;100.00;98566.88;5007822;28;20034;-78
2023/03/07 07:15:50;;;;;;;4.90;1.00;;;2.50;99.90;;;0.83;100.00;98579.25;4996745;28;20038;-79
2023/03/07 07:18:16;;;;;;;4.03;1.17;;;2.50;99.90;;;0.84;100.00;98578.22;4990527;28;20026;-79
2023/03/07 07:20:42;;;;;;;5.60;0.98;;;2.50;99.90;;;0.82;100.00;98578.41;5006848;28;20043;-79
2023/03/07 07:23:08;;;;;;;2.90;1.00;;;2.50;99.90;;;0.83;100.00;98582.75;4992685;28;20393;-79
2023/03/07 07:25:36;;;;;;;4.50;1.10;;;2.50;99.90;;;0.90;100.00;98580.09;4990819;28;20030;-79
2023/03/07 07:28:01;;;;;;;6.22;1.73;;;2.50;99.90;;;0.99;100.00;98594.97;4988752;28;20034;-77
2023/03/07 07:30:27;;;;;;;4.15;1.25;;;2.60;99.90;;;1.01;100.00;98584.03;4991571;28;20133;-78
2023/03/07 07:32:53;;;;;;;4.90;1.13;;;2.60;99.90;;;1.13;100.00;98586.94;4986925;28;20034;-77
2023/03/07 07:35:21;;;;;;;4.68;1.52;;;2.70;99.90;;;1.15;100.00;98593.72;4989577;28;20026;-78
2023/03/07 07:37:47;;;;;;;2.33;1.00;;;2.80;99.90;;;1.28;100.00;98597.47;5005732;28;20042;-79
2023/03/07 07:40:14;;;;;;;5.75;1.40;;;2.90;99.90;;;1.32;100.00;98601.41;5004034;28;20034;-78
2023/03/07 07:42:42;;;;;;;6.45;1.27;;;2.90;99.90;;;1.35;100.00;98597.47;4992347;28;20026;-77
2023/03/07 07:45:16;;;;;;;4.85;1.35;;;3.00;99.90;;;1.36;100.00;98604.50;4985639;28;20031;-78
2023/03/07 07:47:42;;;;;;;5.35;1.23;;;3.00;99.90;;;1.38;100.00;98589.00;4987057;28;20038;-77
2023/03/07 07:50:09;;;;;;;4.43;1.50;;;3.00;99.90;;;1.39;100.00;98610.28;4986700;28;20497;-77
2023/03/07 07:52:35;;;;;;;7.53;1.58;;;3.10;99.90;;;1.40;100.00;98603.06;4988043;28;20044;-77
2023/03/07 07:55:00;;;;;;;4.55;1.50;;;3.10;99.90;;;1.41;100.00;98604.72;4972420;28;20038;-76
2023/03/07 07:57:26;;;;;;;5.35;1.70;;;3.10;99.90;;;1.46;100.00;98604.06;4982924;28;20093;-80
2023/03/07 07:59:53;;;;;;;6.68;2.13;;;3.10;99.90;;;1.50;100.00;98603.44;4983414;28;20043;-78
2023/03/07 08:02:19;;;;;;;5.43;1.55;;;3.20;99.90;;;1.56;100.00;98615.25;4989197;28;20042;-78
2023/03/07 08:04:46;;;;;;;6.25;1.80;;;3.20;99.90;;;1.56;100.00;98597.25;4987475;28;20038;-78
2023/03/07 08:07:13;;;;;;;4.05;1.58;;;3.20;99.90;;;1.61;100.00;98596.63;4990940;28;20505;-79
2023/03/07 08:09:39;;;;;;;6.03;2.08;;;3.30;99.90;;;1.53;100.00;98586.09;4988473;28;20046;-79
2023/03/07 08:12:05;;;;;;;5.75;1.80;;;3.30;99.90;;;1.60;100.00;98616.47;4985612;28;20041;-78
2023/03/07 08:14:33;;;;;;;7.88;2.05;;;3.30;99.90;;;1.59;100.00;98617.50;4988403;28;20057;-78
2023/03/07 08:16:58;;;;;;;7.15;1.80;;;3.30;99.90;;;1.60;100.00;98605.72;4990213;28;20470;-77
2023/03/07 08:19:24;;;;;;;4.40;1.40;;;3.20;99.90;;;1.61;100.00;98599.31;4989177;28;20042;-77
2023/03/07 08:21:50;;;;;;;7.82;1.90;;;3.20;99.90;;;1.64;100.00;98603.44;4987621;28;20030;-78
2023/03/07 08:24:15;;;;;;;5.78;1.70;;;3.30;99.90;;;1.60;100.00;98596.84;4986413;28;20115;-80
2023/03/07 08:26:41;;;;;;;8.32;1.90;;;3.20;99.90;;;1.55;100.00;98597.47;4988289;28;20049;-79
2023/03/07 08:29:07;;;;;;;5.50;1.75;;;3.20;99.90;;;1.52;100.00;98603.25;4991849;28;20113;-77
2023/03/07 08:31:33;;;;;;;3.70;1.50;;;3.20;99.90;;;1.36;100.00;98620.63;4966771;28;20545;-77
2023/03/07 08:33:58;;;;;;;4.95;1.60;;;3.00;99.90;;;1.27;100.00;98620.00;5005873;28;20088;-79
2023/03/07 08:36:24;;;;;;;4.22;1.55;;;3.00;99.90;;;1.23;100.00;98614.19;4990426;28;20042;-78
2023/03/07 08:38:51;;;;;;;6.03;1.70;;;2.90;99.90;;;1.14;100.00;98615.44;4990955;28;20482;-78
2023/03/07 08:41:18;;;;;;;5.63;1.60;;;2.80;99.90;;;1.12;100.00;98617.50;4989287;28;20038;-78
2023/03/07 08:43:43;;;;;;;5.63;1.60;;;2.80;99.90;;;1.12;100.00;98631.75;4985857;28;20406;-78
2023/03/07 08:46:09;;;;;;;4.47;1.77;;;2.80;99.90;;;1.08;100.00;98613.59;4991700;28;20044;-76
2023/03/07 08:48:35;;;;;;;4.53;1.30;;;2.80;99.90;;;1.16;100.00;98626.81;4990066;28;20042;-79
2023/03/07 08:51:14;;;;;;;5.80;1.50;;;2.80;99.90;;;1.19;100.00;98621.03;4988282;28;20970;-78
2023/03/07 08:53:44;;;;;;;6.13;1.30;;;2.80;99.90;;;1.22;100.00;98627.84;4987313;28;20486;-77
2023/03/07 08:56:14;;;;;;;6.45;1.20;;;2.80;99.90;;;1.20;100.00;98622.69;4985508;28;20069;-78
2023/03/07 08:58:41;;;;;;;3.35;1.15;;;2.80;99.90;;;1.23;100.00;98616.88;4984340;28;20102;-78
2023/03/07 09:01:07;;;;;;;4.00;1.00;;;2.90;99.90;;;1.28;100.00;98635.09;5005293;28;20030;-78
2023/03/07 09:03:34;;;;;;;4.25;1.05;;;2.90;99.90;;;1.21;100.00;98616.28;4990356;28;20022;-77
2023/03/07 09:06:02;;;;;;;4.78;1.15;;;2.90;99.90;;;1.14;100.00;98626.19;4989390;28;20571;-79
2023/03/07 09:08:27;;;;;;;6.30;1.02;;;2.80;99.90;;;1.03;100.00;98643.72;4984533;28;20046;-79
2023/03/07 09:10:53;;;;;;;4.28;1.00;;;2.80;99.90;;;0.97;100.00;98636.50;4990704;28;20121;-77
2023/03/07 09:13:19;;;;;;;4.63;1.20;;;2.70;99.90;;;0.96;100.00;98641.03;4990623;28;20049;-78
2023/03/07 09:15:45;;;;;;;2.22;0.93;;;2.60;99.90;;;0.77;100.00;98634.59;4988976;28;20038;-78
2023/03/07 09:18:11;;;;;;;4.72;0.95;;;2.50;99.90;;;0.75;100.00;98636.66;5005355;28;20093;-79
2023/03/07 09:20:37;;;;;;;7.45;1.08;;;2.50;99.90;;;0.78;100.00;98614.75;4990443;28;20359;-79
2023/03/07 09:23:05;;;;;;;3.35;0.82;;;2.50;99.90;;;0.66;100.00;98632.47;4990243;28;20034;-79
2023/03/07 09:25:31;;;;;;;6.97;1.38;;;2.40;99.90;;;0.66;100.00;98630.63;4990814;28;20128;-78
2023/03/07 09:27:57;;;;;;;5.35;1.00;;;2.30;99.90;;;0.64;100.00;98638.06;4990167;28;20037;-79
2023/03/07 09:30:24;;;;;;;4.78;1.05;;;2.30;99.90;;;0.66;100.00;98633.31;4986687;28;20070;-78
2023/03/07 09:32:50;;;;;;;3.53;0.80;;;2.40;99.90;;;0.57;100.00;98626.47;4988049;28;20050;-79
2023/03/07 09:35:17;;;;;;;3.80;0.90;;;2.30;99.90;;;0.51;100.00;98624.56;4984763;28;20031;-78
2023/03/07 09:37:43;;;;;;;4.47;1.50;;;2.20;99.90;;;0.38;100.00;98617.28;4984019;28;20086;-79
2023/03/07 09:40:23;;;;;;;4.40;0.95;;;2.10;99.90;;;0.40;100.00;98613.41;4986017;28;20038;-78
2023/03/07 09:43:09;;;;;;;3.65;1.10;;;2.20;99.90;;;0.39;100.00;98629.69;4982934;28;20033;-78
2023/03/07 09:46:11;;;;;;;6.25;1.23;;;2.10;99.90;;;0.26;100.00;98627.78;4989082;28;20477;-79
2023/03/07 09:49:05;;;;;;;4.78;1.20;;;2.00;99.90;;;0.22;100.00;98621.16;4987197;28;20047;-77
2023/03/07 09:51:39;;;;;;;3.65;1.10;;;1.90;99.90;;;0.19;100.00;98624.25;4958005;28;20390;-76
2023/03/07 09:54:15;;;;;;;3.83;0.98;;;1.90;99.90;;;0.16;100.00;98616.59;4984958;28;20081;-78
2023/03/07 09:56:58;;;;;;;3.25;0.90;;;1.90;99.90;;;0.06;100.00;98625.84;4992287;28;20674;-77
2023/03/07 09:59:46;;;;;;;5.53;1.40;;;1.80;99.90;;;-0.01;100.00;98622.28;4993359;28;20088;-77
2023/03/07 10:02:33;;;;;;;3.45;1.00;;;1.80;99.90;;;0.02;100.00;98623.75;4990451;28;20039;-76
2023/03/07 10:05:34;;;;;;;5.57;1.27;;;1.70;99.90;;;0.03;100.00;98631.59;5008429;28;20034;-76
2023/03/07 10:08:01;;;;;;;6.07;1.38;;;1.70;99.90;;;-0.09;100.00;98611.72;4981441;28;20105;-76
2023/03/07 10:10:40;;;;;;;4.47;1.00;;;1.70;99.90;;;0.04;100.00;98622.53;5006928;28;20038;-76
2023/03/07 10:13:11;;;;;;;;;;;1.80;99.90;;;0.01;100.00;98614.88;4993140;28;20030;-79
2023/03/07 10:15:55;;;;;;;6.25;3.63;;;1.70;99.90;;;0.04;100.00;98619.84;4994023;28;19925;-78
2023/03/07 10:18:53;;;;;;;4.30;1.20;;;1.80;99.90;;;0.07;100.00;98614.09;5008169;28;20034;-78
2023/03/07 10:21:56;;;;;;;5.32;1.40;;;1.80;99.90;;;0.16;100.00;98617.44;4989397;28;20061;-78
2023/03/07 10:25:20;;;;;;;3.70;1.20;;;1.80;99.90;;;0.06;100.00;98607.06;4986540;28;20125;-78
2023/03/07 10:27:51;;;;;;;4.15;1.10;;;1.80;99.90;;;0.06;100.00;98635.72;4989010;28;20499;-79